Time;durP1;ratioP1;P1;durP2;ratioP2;P2;SDS_P1;SDS_P2;PMS_P1;PMS_P2;Temp;Humidity;BMP_temperature;BMP_pressure;BME280_temperature;BME280_humidity;BME280_pressure;Samples;Min_cycle;Max_cycle;Signal;HPM_P1;HPM_P2
2022/01/17 00:00:52;;;;;;;;;;;1.60;99.90;;;;;;5092133;28;19931;-74
2022/01/17 00:03:25;;;;;;;;;;;1.70;99.90;;;;;;5074656;28;20040;-75
2022/01/17 00:05:57;;;;;;;;;;;1.70;99.90;;;;;;5074852;28;19924;-74
2022/01/17 00:08:29;;;;;;;;;;;1.70;99.90;;;;;;5073890;28;19924;-73
2022/01/17 00:10:56;;;;;;;;;;;1.70;99.90;;;;;;5073872;28;20360;-75
2022/01/17 00:13:28;;;;;;;;;;;1.70;99.90;;;;;;5073516;28;19946;-75
2022/01/17 00:16:05;;;;;;;;;;;1.70;99.90;;;;;;5073921;28;19963;-75
2022/01/17 00:21:09;;;;;;;;;;;1.70;99.90;;;;;;5073905;28;19924;-75
2022/01/17 00:23:41;;;;;;;;;;;1.70;99.90;;;;;;5057539;28;20272;-75
2022/01/17 00:26:12;;;;;;;;;;;1.70;99.90;;;;;;5057857;28;19934;-74
2022/01/17 00:28:39;;;;;;;;;;;1.70;99.90;;;;;;5057182;28;19924;-75
2022/01/17 00:31:05;;;;;;;;;;;1.70;99.90;;;;;;5091877;28;19967;-75
2022/01/17 00:33:37;;;;;;;;;;;1.70;99.90;;;;;;5091406;28;19930;-74
2022/01/17 00:36:04;;;;;;;;;;;1.70;99.90;;;;;;5073742;28;20401;-75
2022/01/17 00:38:36;;;;;;;;;;;1.70;99.90;;;;;;5074487;28;19968;-74
2022/01/17 00:41:02;;;;;;;;;;;1.70;99.90;;;;;;5056943;28;19928;-75
2022/01/17 00:43:35;;;;;;;;;;;1.60;99.90;;;;;;5091338;28;19930;-74
2022/01/17 00:46:06;;;;;;;;;;;1.60;99.90;;;;;;5073533;28;19924;-75
2022/01/17 00:48:33;;;;;;;;;;;1.70;99.90;;;;;;5074270;28;19959;-75
2022/01/17 00:51:05;;;;;;;;;;;1.70;99.90;;;;;;5061463;28;19930;-75
2022/01/17 00:53:31;;;;;;;;;;;1.70;99.90;;;;;;5060129;28;19924;-75
2022/01/17 00:55:58;;;;;;;;;;;1.70;99.90;;;;;;5077276;28;20340;-74
2022/01/17 00:58:25;;;;;;;;;;;1.70;99.90;;;;;;5060574;28;20015;-74
2022/01/17 01:00:51;;;;;;;;;;;1.70;99.90;;;;;;5077181;28;19924;-74
2022/01/17 01:03:23;;;;;;;;;;;1.70;99.90;;;;;;5077576;28;19938;-75
2022/01/17 01:05:50;;;;;;;;;;;1.70;99.90;;;;;;5095248;28;20022;-75
2022/01/17 01:08:21;;;;;;;;;;;1.60;99.90;;;;;;5077997;28;19924;-74
2022/01/17 01:10:53;;;;;;;;;;;1.60;99.90;;;;;;5078022;28;20346;-75
2022/01/17 01:13:23;;;;;;;;;;;1.60;99.90;;;;;;5094558;28;20011;-74
2022/01/17 01:29:16;;;;;;;;;;;1.60;99.90;;;;;;5076611;28;19930;-74
2022/01/17 01:31:53;;;;;;;;;;;1.60;99.90;;;;;;5060736;28;20007;-75
2022/01/17 01:34:47;;;;;;;;;;;1.60;99.90;;;;;;5094130;28;19924;-73
2022/01/17 01:37:14;;;;;;;;;;;1.60;99.90;;;;;;5094618;28;20006;-75
2022/01/17 01:39:49;;;;;;;;;;;1.60;99.90;;;;;;5094535;28;19924;-74
2022/01/17 01:42:22;;;;;;;;;;;1.60;99.90;;;;;;5076210;28;20400;-75
2022/01/17 01:44:52;;;;;;;;;;;1.70;99.90;;;;;;5076330;28;20014;-75
2022/01/17 01:47:20;;;;;;;;;;;1.70;99.90;;;;;;5059610;28;20014;-74
2022/01/17 01:49:46;;;;;;;;;;;1.70;99.90;;;;;;5076222;28;19963;-75
2022/01/17 01:52:13;;;;;;;;;;;1.70;99.90;;;;;;5076192;28;20030;-75
2022/01/17 01:54:40;;;;;;;;;;;1.70;99.90;;;;;;5075748;28;19959;-73
2022/01/17 01:57:12;;;;;;;;;;;1.70;99.90;;;;;;5094039;28;19930;-74
2022/01/17 01:59:44;;;;;;;;;;;1.70;99.90;;;;;;5076217;28;19962;-75
2022/01/17 02:02:10;;;;;;;;;;;1.70;99.90;;;;;;5093742;28;20018;-73
2022/01/17 02:04:37;;;;;;;;;;;1.70;99.90;;;;;;5075049;28;20398;-74
2022/01/17 02:07:09;;;;;;;;;;;1.70;99.90;;;;;;5076241;28;20042;-74
2022/01/17 02:09:37;;;;;;;;;;;1.70;99.90;;;;;;5093179;28;19924;-75
2022/01/17 02:12:09;;;;;;;;;;;1.70;99.90;;;;;;5093331;28;20018;-73
2022/01/17 02:14:41;;;;;;;;;;;1.60;99.90;;;;;;5059232;28;19974;-74
2022/01/17 02:17:12;;;;;;;;;;;1.60;99.90;;;;;;5076607;28;19928;-74
2022/01/17 02:19:46;;;;;;;;;;;1.60;99.90;;;;;;5102367;28;20030;-72
2022/01/17 02:22:18;;;;;;;;;;;1.60;99.90;;;;;;5084053;28;19928;-74
2022/01/17 02:24:49;;;;;;;;;;;1.60;99.90;;;;;;5076142;28;20022;-73
2022/01/17 02:27:21;;;;;;;;;;;1.60;99.90;;;;;;5075798;28;19924;-74
2022/01/17 02:29:48;;;;;;;;;;;1.60;99.90;;;;;;5092934;28;20355;-76
2022/01/17 02:32:20;;;;;;;;;;;1.60;99.90;;;;;;5092908;28;19925;-74
2022/01/17 02:34:46;;;;;;;;;;;1.60;99.90;;;;;;5074292;28;20023;-72
2022/01/17 02:37:13;;;;;;;;;;;1.60;99.90;;;;;;5058270;28;19927;-74
2022/01/17 02:39:45;;;;;;;;;;;1.60;99.90;;;;;;5075041;28;19928;-73
2022/01/17 02:42:16;;;;;;;;;;;1.60;99.90;;;;;;5093819;28;20365;-75
2022/01/17 02:44:45;;;;;;;;;;;1.60;99.90;;;;;;5058216;28;20506;-75
2022/01/17 02:47:14;;;;;;;;;;;1.60;99.90;;;;;;5058578;28;19947;-74
2022/01/17 02:49:46;;;;;;;;;;;1.60;99.90;;;;;;5093083;28;19928;-75
2022/01/17 02:52:21;;;;;;;;;;;1.50;99.90;;;;;;5093089;28;20391;-73
2022/01/17 02:54:47;;;;;;;;;;;1.60;99.90;;;;;;5057848;28;19924;-74
2022/01/17 02:57:14;;;;;;;;;;;1.60;99.90;;;;;;5075065;28;19972;-74
2022/01/17 02:59:46;;;;;;;;;;;1.60;99.90;;;;;;5092894;28;20276;-75
2022/01/17 03:02:17;;;;;;;;;;;1.60;99.90;;;;;;5074792;28;20011;-75
2022/01/17 03:04:44;;;;;;;;;;;1.60;99.90;;;;;;5074531;28;20007;-75
2022/01/17 03:07:16;;;;;;;;;;;1.60;99.90;;;;;;5092931;28;19971;-75
2022/01/17 03:10:01;;;;;;;;;;;1.60;99.90;;;;;;5075451;28;19928;-75
2022/01/17 03:12:31;;;;;;;;;;;1.70;99.90;;;;;;5073576;28;19935;-74
2022/01/17 03:15:03;;;;;;;;;;;1.70;99.90;;;;;;5075548;28;20320;-75
2022/01/17 03:17:34;;;;;;;;;;;1.70;99.90;;;;;;5092619;28;19946;-74
2022/01/17 03:20:06;;;;;;;;;;;1.70;99.90;;;;;;5092550;28;20023;-74
2022/01/17 03:22:33;;;;;;;;;;;1.70;99.90;;;;;;5092255;28;19928;-74
2022/01/17 03:25:00;;;;;;;;;;;1.70;99.90;;;;;;5057884;28;19960;-74
2022/01/17 03:27:26;;;;;;;;;;;1.80;99.90;;;;;;5074357;28;20362;-75
2022/01/17 03:29:53;;;;;;;;;;;1.80;99.90;;;;;;5092348;28;20446;-74
2022/01/17 03:32:25;;;;;;;;;;;1.80;99.90;;;;;;5091758;28;19930;-71
2022/01/17 03:34:52;;;;;;;;;;;1.80;99.90;;;;;;5092296;28;20385;-74
2022/01/17 03:37:18;;;;;;;;;;;1.80;99.90;;;;;;5108073;28;19924;-75
2022/01/17 03:39:45;;;;;;;;;;;1.80;99.90;;;;;;5092098;28;20016;-75
2022/01/17 03:42:21;;;;;;;;;;;1.80;99.90;;;;;;5058290;28;20415;-75
2022/01/17 03:44:53;;;;;;;;;;;1.70;99.90;;;;;;5058372;28;19987;-75
2022/01/17 03:47:24;;;;;;;;;;;1.70;99.90;;;;;;5058297;28;19924;-75
2022/01/17 03:49:56;;;;;;;;;;;1.70;99.90;;;;;;5074935;28;19931;-75
2022/01/17 03:52:23;;;;;;;;;;;1.70;99.90;;;;;;5074081;28;19924;-75
2022/01/17 03:54:49;;;;;;;;;;;1.70;99.90;;;;;;5091971;28;19924;-75
2022/01/17 03:57:16;;;;;;;;;;;1.70;99.90;;;;;;5092086;28;19946;-75
2022/01/17 03:59:47;;;;;;;;;;;1.70;99.90;;;;;;5073966;28;20294;-75
2022/01/17 04:02:14;;;;;;;;;;;1.70;99.90;;;;;;5073980;28;19931;-74
2022/01/17 04:04:41;;;;;;;;;;;1.70;99.90;;;;;;5091675;28;19966;-74
2022/01/17 04:07:07;;;;;;;;;;;1.70;99.90;;;;;;5091952;28;19924;-75
2022/01/17 04:09:34;;;;;;;;;;;1.80;99.90;;;;;;5073939;28;19925;-74
2022/01/17 04:12:06;;;;;;;;;;;1.80;99.90;;;;;;5091946;28;20301;-75
2022/01/17 04:14:38;;;;;;;;;;;1.80;99.90;;;;;;5074369;28;20016;-75
2022/01/17 04:17:10;;;;;;;;;;;1.80;99.90;;;;;;5058550;28;19924;-74
2022/01/17 04:19:36;;;;;;;;;;;1.80;99.90;;;;;;4972524;28;19932;-75
2022/01/17 04:22:10;;;;;;;;;;;1.80;99.90;;;;;;4972487;28;19926;-74
2022/01/17 04:24:37;;;;;;;;;;;1.80;99.90;;;;;;4976532;28;19932;-75
2022/01/17 04:27:03;;;;;;;;;;;1.90;99.90;;;;;;5080452;28;19954;-75
2022/01/17 04:29:38;;;;;;;;;;;1.80;99.90;;;;;;5078183;28;19924;-74
2022/01/17 04:32:05;;;;;;;;;;;1.80;99.90;;;;;;5077514;28;19931;-75
2022/01/17 04:34:34;;;;;;;;;;;1.80;99.90;;;;;;5095039;28;19924;-75
2022/01/17 04:37:02;;;;;;;;;;;1.80;99.90;;;;;;5077263;28;20292;-72
2022/01/17 04:39:28;;;;;;;;;;;1.90;99.90;;;;;;5077261;28;20011;-71
2022/01/17 04:41:57;;;;;;;;;;;1.90;99.90;;;;;;5065134;28;20426;-74
2022/01/17 04:47:13;;;;;;;;;;;1.90;99.90;;;;;;5093998;28;20028;-75
2022/01/17 04:49:40;;;;;;;;;;;1.90;99.90;;;;;;5043317;28;19926;-75
2022/01/17 04:52:13;;;;;;;;;;;1.90;99.90;;;;;;5059253;28;19932;-75
2022/01/17 04:54:52;;;;;;;;;;;1.90;99.90;;;;;;5041025;28;19932;-75
2022/01/17 04:57:19;;;;;;;;;;;1.90;99.90;;;;;;4992305;28;19926;-75
2022/01/17 04:59:45;;;;;;;;;;;1.90;99.90;;;;;;4992031;28;19926;-74
2022/01/17 05:02:12;;;;;;;;;;;1.90;99.90;;;;;;5059146;28;19925;-74
2022/01/17 05:04:39;;;;;;;;;;;1.90;99.90;;;;;;5042512;28;20008;-74
2022/01/17 05:07:06;;;;;;;;;;;1.90;99.90;;;;;;4992182;28;20332;-74
2022/01/17 05:09:39;;;;;;;;;;;1.90;99.90;;;;;;4991885;28;19926;-74
2022/01/17 05:12:06;;;;;;;;;;;1.90;99.90;;;;;;5043932;28;19926;-72
2022/01/17 05:14:43;;;;;;;;;;;1.80;99.90;;;;;;5041562;28;19931;-74
2022/01/17 05:19:58;;;;;;;;;;;1.90;99.90;;;;;;4978755;28;19991;-71
2022/01/17 05:22:26;;;;;;;;;;;1.80;99.90;;;;;;4978293;28;20028;-72
2022/01/17 05:24:59;;;;;;;;;;;1.80;99.90;;;;;;4959554;28;19926;-74
2022/01/17 05:27:30;;;;;;;;;;;1.80;99.90;;;;;;4970754;28;19925;-74
2022/01/17 05:30:06;;;;;;;;;;;1.80;99.90;;;;;;5092920;28;19946;-73
2022/01/17 05:32:32;;;;;;;;;;;1.80;99.90;;;;;;4998360;28;20410;-73
2022/01/17 05:34:59;;;;;;;;;;;1.90;99.90;;;;;;5008767;28;19925;-75
2022/01/17 05:37:31;;;;;;;;;;;1.90;99.90;;;;;;4982138;28;20021;-74
2022/01/17 05:40:03;;;;;;;;;;;1.90;99.90;;;;;;4958496;28;19936;-72
2022/01/17 05:42:30;;;;;;;;;;;1.90;99.90;;;;;;4973081;28;19926;-74
2022/01/17 05:45:02;;;;;;;;;;;1.80;99.90;;;;;;4984744;28;19938;-74
2022/01/17 05:47:29;;;;;;;;;;;1.80;99.90;;;;;;5059355;28;19932;-74
2022/01/17 05:49:57;;;;;;;;;;;1.80;99.90;;;;;;5004257;28;19971;-74
2022/01/17 05:52:24;;;;;;;;;;;1.80;99.90;;;;;;5093140;28;20019;-72
2022/01/17 05:54:50;;;;;;;;;;;1.80;99.90;;;;;;5074960;28;19924;-74
2022/01/17 05:57:22;;;;;;;;;;;1.80;99.90;;;;;;5073677;28;20022;-74
2022/01/17 05:59:49;;;;;;;;;;;1.90;99.90;;;;;;5093160;28;20016;-74
2022/01/17 06:02:16;;;;;;;;;;;1.90;99.90;;;;;;5036575;28;19925;-71
2022/01/17 06:04:47;;;;;;;;;;;1.80;99.90;;;;;;5016781;28;20298;-74
2022/01/17 06:07:14;;;;;;;;;;;1.90;99.90;;;;;;5020480;28;19930;-72
2022/01/17 06:09:45;;;;;;;;;;;1.90;99.90;;;;;;5044393;28;19925;-74
2022/01/17 06:12:17;;;;;;;;;;;1.90;99.90;;;;;;5020290;28;19925;-74
2022/01/17 06:14:44;;;;;;;;;;;1.90;99.90;;;;;;5046328;28;19928;-74
2022/01/17 06:17:16;;;;;;;;;;;1.90;99.90;;;;;;5059472;28;20397;-74
2022/01/17 06:19:42;;;;;;;;;;;1.90;99.90;;;;;;5075220;28;20066;-74
2022/01/17 06:22:14;;;;;;;;;;;1.90;99.90;;;;;;5075257;28;19928;-74
2022/01/17 06:24:46;;;;;;;;;;;1.90;99.90;;;;;;5075122;28;19924;-74
2022/01/17 06:27:12;;;;;;;;;;;1.90;99.90;;;;;;5058728;28;20474;-74
2022/01/17 06:29:39;;;;;;;;;;;1.90;99.90;;;;;;5058576;28;20556;-75
2022/01/17 06:32:07;;;;;;;;;;;1.80;99.90;;;;;;5058483;28;19924;-73
2022/01/17 06:34:34;;;;;;;;;;;1.90;99.90;;;;;;5074678;28;20018;-72
2022/01/17 06:37:05;;;;;;;;;;;1.90;99.90;;;;;;5093232;28;19931;-75
2022/01/17 06:39:33;;;;;;;;;;;1.90;99.90;;;;;;5075119;28;20306;-73
2022/01/17 06:42:00;;;;;;;;;;;1.90;99.90;;;;;;5074889;28;19924;-72
2022/01/17 06:44:27;;;;;;;;;;;1.90;99.90;;;;;;5057742;28;20023;-74
2022/01/17 06:46:58;;;;;;;;;;;1.90;99.90;;;;;;5073817;28;20421;-72
2022/01/17 06:49:30;;;;;;;;;;;1.90;99.90;;;;;;5075698;28;19946;-75
2022/01/17 06:51:56;;;;;;;;;;;1.90;99.90;;;;;;5058456;28;19931;-74
2022/01/17 06:54:28;;;;;;;;;;;1.90;99.90;;;;;;5058838;28;19925;-74
2022/01/17 06:57:00;;;;;;;;;;;1.80;99.90;;;;;;5093033;28;20280;-74
2022/01/17 06:59:31;;;;;;;;;;;1.80;99.90;;;;;;5074814;28;19931;-74
2022/01/17 07:01:58;;;;;;;;;;;1.80;99.90;;;;;;5074500;28;19924;-74
2022/01/17 07:04:25;;;;;;;;;;;1.80;99.90;;;;;;5074180;28;19928;-74
2022/01/17 07:06:51;;;;;;;;;;;1.80;99.90;;;;;;5057977;28;19924;-75
2022/01/17 07:09:23;;;;;;;;;;;1.80;99.90;;;;;;5058510;28;19977;-74
2022/01/17 07:11:58;;;;;;;;;;;1.80;99.90;;;;;;5092424;28;19928;-74
2022/01/17 07:14:26;;;;;;;;;;;1.80;99.90;;;;;;5073976;28;20298;-74
2022/01/17 07:16:58;;;;;;;;;;;1.80;99.90;;;;;;5092269;28;19931;-75
2022/01/17 07:19:29;;;;;;;;;;;1.80;99.90;;;;;;5074042;28;19925;-75
2022/01/17 07:21:56;;;;;;;;;;;1.80;99.90;;;;;;5092292;28;20026;-75
2022/01/17 07:24:28;;;;;;;;;;;1.70;99.90;;;;;;5091825;28;19925;-75
2022/01/17 07:26:54;;;;;;;;;;;1.80;99.90;;;;;;5074271;28;19930;-74
2022/01/17 07:29:26;;;;;;;;;;;1.80;99.90;;;;;;5074856;28;19924;-75
2022/01/17 07:31:58;;;;;;;;;;;1.80;99.90;;;;;;5073901;28;19947;-74
2022/01/17 07:34:25;;;;;;;;;;;1.80;99.90;;;;;;5073494;28;20309;-75
2022/01/17 07:36:57;;;;;;;;;;;1.80;99.90;;;;;;5091890;28;19950;-73
2022/01/17 07:39:29;;;;;;;;;;;1.80;99.90;;;;;;5073911;28;19928;-74
2022/01/17 07:42:01;;;;;;;;;;;1.80;99.90;;;;;;5091986;28;19930;-75
2022/01/17 07:44:34;;;;;;;;;;;1.80;99.90;;;;;;5007816;28;19926;-75
2022/01/17 07:47:06;;;;;;;;;;;1.90;99.90;;;;;;4971232;28;19936;-74
2022/01/17 07:49:38;;;;;;;;;;;1.90;99.90;;;;;;4971991;28;19926;-75
2022/01/17 07:52:05;;;;;;;;;;;1.90;99.90;;;;;;4956248;28;19925;-75
2022/01/17 07:54:43;;;;;;;;;;;1.90;99.90;;;;;;4956572;28;19932;-75
2022/01/17 07:57:11;;;;;;;;;;;1.90;99.90;;;;;;4971868;28;20392;-74
2022/01/17 07:59:37;;;;;;;;;;;1.90;99.90;;;;;;4972017;28;19932;-73
2022/01/17 08:02:04;;;;;;;;;;;1.90;99.90;;;;;;4971957;28;19926;-74
2022/01/17 08:04:36;;;;;;;;;;;1.90;99.90;;;;;;4956307;28;19926;-74
2022/01/17 08:07:04;;;;;;;;;;;2.00;99.90;;;;;;4972130;28;19932;-74
2022/01/17 08:09:36;;;;;;;;;;;2.00;99.90;;;;;;4994915;28;19933;-74
2022/01/17 08:12:08;;;;;;;;;;;2.10;99.90;;;;;;4975629;28;19925;-72
2022/01/17 08:14:40;;;;;;;;;;;2.10;99.90;;;;;;4991326;28;19932;-74
2022/01/17 08:17:07;;;;;;;;;;;2.20;99.90;;;;;;5054895;28;20026;-75
2022/01/17 08:19:34;;;;;;;;;;;2.20;99.90;;;;;;5008855;28;20366;-73
2022/01/17 08:22:01;;;;;;;;;;;2.20;99.90;;;;;;5055516;28;20028;-74
2022/01/17 08:24:34;;;;;;;;;;;2.20;99.90;;;;;;5039381;28;19930;-74
2022/01/17 08:27:05;;;;;;;;;;;2.30;99.90;;;;;;5010694;28;19926;-73
2022/01/17 08:29:37;;;;;;;;;;;2.40;99.90;;;;;;5052738;28;19924;-74
2022/01/17 08:32:09;;;;;;;;;;;2.40;99.90;;;;;;4990232;28;19926;-75
2022/01/17 08:34:35;;;;;;;;;;;2.40;99.90;;;;;;5030738;28;19932;-74
2022/01/17 08:37:07;;;;;;;;;;;2.40;99.90;;;;;;5053526;28;19931;-74
2022/01/17 08:39:34;;;;;;;;;;;2.50;99.90;;;;;;5014576;28;20355;-74
2022/01/17 08:42:10;;;;;;;;;;;2.40;99.90;;;;;;5043534;28;19924;-75
2022/01/17 08:44:49;;;;;;;;;;;2.50;99.90;;;;;;5021927;28;19924;-74
2022/01/17 08:47:20;;;;;;;;;;;2.50;99.90;;;;;;4999027;28;19930;-73
2022/01/17 08:49:52;;;;;;;;;;;2.50;99.90;;;;;;4981752;28;19926;-75
2022/01/17 08:52:24;;;;;;;;;;;2.60;99.90;;;;;;5011116;28;19924;-72
2022/01/17 08:54:51;;;;;;;;;;;2.60;99.90;;;;;;5038479;28;19932;-74
2022/01/17 08:57:18;;;;;;;;;;;2.60;99.90;;;;;;5059589;28;20425;-75
2022/01/17 08:59:50;;;;;;;;;;;2.60;99.90;;;;;;5005438;28;19926;-75
2022/01/17 09:02:22;;;;;;;;;;;2.70;99.90;;;;;;5055545;28;19929;-75
2022/01/17 09:04:54;;;;;;;;;;;2.80;99.90;;;;;;5012446;28;19924;-75
2022/01/17 09:07:20;;;;;;;;;;;2.80;99.90;;;;;;5039782;28;19932;-76
2022/01/17 09:09:47;;;;;;;;;;;2.80;99.90;;;;;;4991509;28;20363;-75
2022/01/17 09:12:18;;;;;;;;;;;2.80;99.90;;;;;;4980838;28;19926;-75
2022/01/17 09:14:45;;;;;;;;;;;2.90;99.90;;;;;;5043790;28;20336;-75
2022/01/17 09:17:12;;;;;;;;;;;2.90;99.90;;;;;;5013682;28;19926;-76
2022/01/17 09:19:40;;;;;;;;;;;3.00;99.90;;;;;;5057253;28;20351;-74
2022/01/17 09:22:07;;;;;;;;;;;3.00;99.90;;;;;;5008422;28;19926;-73
2022/01/17 09:24:39;;;;;;;;;;;3.00;99.90;;;;;;5066350;28;19926;-74
2022/01/17 09:27:12;;;;;;;;;;;3.10;99.90;;;;;;5025365;28;19930;-75
2022/01/17 09:29:38;;;;;;;;;;;3.20;99.90;;;;;;5014494;28;19932;-75
2022/01/17 09:32:05;;;;;;;;;;;3.30;99.90;;;;;;5071478;28;19924;-74
2022/01/17 09:34:32;;;;;;;;;;;3.30;99.90;;;;;;5066504;28;20387;-75
2022/01/17 09:36:59;;;;;;;;;;;3.30;99.90;;;;;;5034621;28;20416;-75
2022/01/17 09:39:25;;;;;;;;;;;3.40;99.90;;;;;;5022007;28;20458;-75
2022/01/17 09:41:57;;;;;;;;;;;3.40;99.90;;;;;;5050612;28;19924;-75
2022/01/17 09:44:24;;;;;;;;;;;3.50;99.90;;;;;;5025433;28;20400;-75
2022/01/17 09:46:54;;;;;;;;;;;3.50;99.90;;;;;;5057247;28;19932;-75
2022/01/17 09:54:28;;;;;;;;;;;3.60;99.90;;;;;;5058925;28;20015;-75
2022/01/17 09:57:01;;;;;;;;;;;3.60;99.90;;;;;;5017668;28;19924;-75
2022/01/17 09:59:34;;;;;;;;;;;3.70;99.90;;;;;;5017064;28;20368;-73
2022/01/17 10:02:00;;;;;;;;;;;3.80;99.90;;;;;;5051358;28;20379;-75
2022/01/17 10:04:27;;;;;;;;;;;3.90;99.90;;;;;;5074699;28;19928;-74
2022/01/17 10:06:55;;;;;;;;;;;4.00;99.90;;;;;;5054902;28;19925;-75
2022/01/17 10:09:22;;;;;;;;;;;4.10;99.90;;;;;;5013183;28;19924;-74
2022/01/17 10:12:00;;;;;;;;;;;4.10;99.90;;;;;;5042085;28;20028;-75
2022/01/17 10:14:36;;;;;;;;;;;4.10;99.90;;;;;;4963048;28;19925;-75
2022/01/17 10:17:13;;;;;;;;;;;4.20;99.90;;;;;;4990980;28;19932;-75
2022/01/17 10:19:45;;;;;;;;;;;4.20;99.90;;;;;;4989235;28;19926;-74
2022/01/17 10:22:20;;;;;;;;;;;4.20;99.90;;;;;;4976174;28;19932;-75
2022/01/17 10:25:03;;;;;;;;;;;4.20;99.90;;;;;;4977157;28;19932;-74
2022/01/17 10:30:49;;;;;;;;;;;4.50;99.90;;;;;;5009442;28;19926;-75
2022/01/17 10:35:59;;;;;;;;;;;4.50;99.90;;;;;;4972883;28;19932;-75
2022/01/17 10:38:27;;;;;;;;;;;4.50;99.90;;;;;;5021558;28;20466;-76
2022/01/17 10:40:56;;;;;;;;;;;4.40;99.90;;;;;;5004340;28;20132;-75
2022/01/17 10:43:34;;;;;;;;;;;4.40;99.90;;;;;;5082749;28;19928;-75
2022/01/17 10:46:09;;;;;;;;;;;4.40;99.90;;;;;;5057627;28;19928;-75
2022/01/17 10:48:43;;;;;;;;;;;4.40;99.90;;;;;;5074424;28;20028;-76
2022/01/17 10:51:11;;;;;;;;;;;4.40;99.90;;;;;;5074433;28;19924;-75
2022/01/17 10:53:42;;;;;;;;;;;4.50;99.90;;;;;;5019018;28;19926;-73
2022/01/17 10:56:10;;;;;;;;;;;4.60;99.90;;;;;;4957438;28;19932;-75
2022/01/17 10:58:38;;;;;;;;;;;4.60;99.90;;;;;;5024606;28;19926;-74
2022/01/17 11:01:11;;;;;;;;;;;4.60;99.90;;;;;;4975764;28;20239;-75
2022/01/17 11:03:38;;;;;;;;;;;4.60;99.90;;;;;;5070245;28;20026;-74
2022/01/17 11:06:11;;;;;;;;;;;4.60;99.90;;;;;;5088562;28;19935;-74
2022/01/17 11:08:40;;;;;;;;;;;4.60;99.90;;;;;;5091255;28;19924;-75
2022/01/17 11:11:08;;;;;;;;;;;4.70;99.90;;;;;;5073879;28;20018;-75
2022/01/17 11:13:43;;;;;;;;;;;4.70;99.90;;;;;;5091311;28;19946;-74
2022/01/17 11:16:18;;;;;;;;;;;4.60;99.90;;;;;;5036956;28;19925;-75
2022/01/17 11:18:57;;;;;;;;;;;4.70;99.90;;;;;;4991627;28;20453;-75
2022/01/17 11:21:28;;;;;;;;;;;4.70;99.90;;;;;;5013815;28;19999;-73
2022/01/17 11:23:55;;;;;;;;;;;4.70;99.90;;;;;;5037189;28;19956;-73
2022/01/17 11:26:22;;;;;;;;;;;4.70;99.90;;;;;;5034599;28;19924;-75
2022/01/17 11:28:54;;;;;;;;;;;4.70;99.90;;;;;;5056915;28;19965;-74
2022/01/17 11:31:22;;;;;;;;;;;4.80;99.90;;;;;;5073828;28;20023;-74
2022/01/17 11:33:50;;;;;;;;;;;4.90;99.90;;;;;;5089539;28;20374;-75
2022/01/17 11:36:21;;;;;;;;;;;4.90;99.90;;;;;;5074216;28;20278;-74
2022/01/17 11:38:55;;;;;;;;;;;4.90;99.90;;;;;;5074494;28;20022;-75
2022/01/17 11:41:28;;;;;;;;;;;5.00;99.90;;;;;;5006335;28;19932;-75
2022/01/17 11:44:07;;;;;;;;;;;5.00;99.90;;;;;;5019338;28;19930;-75
2022/01/17 11:46:49;;;;;;;;;;;4.90;99.90;;;;;;5096690;28;19934;-75
2022/01/17 11:49:26;;;;;;;;;;;5.00;99.90;;;;;;5028811;28;20024;-75
2022/01/17 11:51:58;;;;;;;;;;;5.10;99.90;;;;;;5022104;28;19926;-75
2022/01/17 11:54:30;;;;;;;;;;;5.10;99.90;;;;;;4990433;28;19931;-75
2022/01/17 11:57:02;;;;;;;;;;;5.10;99.90;;;;;;5008358;28;19926;-74
2022/01/17 11:59:32;;;;;;;;;;;5.10;99.90;;;;;;4991175;28;20452;-73
2022/01/17 12:02:13;;;;;;;;;;;5.10;99.90;;;;;;5008402;28;20020;-74
2022/01/17 12:04:40;;;;;;;;;;;5.00;99.90;;;;;;4973855;28;20088;-75
2022/01/17 12:07:12;;;;;;;;;;;4.90;99.90;;;;;;4990591;28;19926;-75
2022/01/17 12:09:44;;;;;;;;;;;4.90;99.90;;;;;;4995034;28;20314;-75
2022/01/17 12:12:13;;;;;;;;;;;4.80;99.90;;;;;;4990886;28;19929;-75
2022/01/17 12:14:54;;;;;;;;;;;4.80;99.90;;;;;;4991823;28;20028;-75
2022/01/17 12:17:27;;;;;;;;;;;4.80;99.90;;;;;;4973458;28;19930;-75
2022/01/17 12:20:03;;;;;;;;;;;4.80;99.90;;;;;;4969936;28;19926;-75
2022/01/17 12:22:38;;;;;;;;;;;4.70;99.90;;;;;;4986829;28;19932;-76
2022/01/17 12:25:26;;;;;;;;;;;4.70;99.90;;;;;;5030632;28;19931;-76
2022/01/17 12:28:05;;;;;;;;;;;4.60;99.90;;;;;;5069806;28;19929;-75
2022/01/17 12:30:43;;;;;;;;;;;4.70;99.90;;;;;;5038205;28;19979;-75
2022/01/17 12:33:27;;;;;;;;;;;4.70;99.90;;;;;;4970443;28;19929;-74
2022/01/17 12:36:00;;;;;;;;;;;4.60;99.90;;;;;;5006905;28;19934;-75
2022/01/17 12:38:31;;;;;;;;;;;4.60;99.90;;;;;;5031043;28;19924;-73
2022/01/17 12:40:58;;;;;;;;;;;4.60;99.90;;;;;;4980776;28;19933;-75
2022/01/17 12:43:29;;;;;;;;;;;4.70;99.90;;;;;;4990305;28;20024;-73
2022/01/17 12:46:05;;;;;;;;;;;4.70;99.90;;;;;;4994465;28;19932;-75
2022/01/17 12:48:37;;;;;;;;;;;4.70;99.90;;;;;;5048842;28;19930;-75
2022/01/17 12:51:07;;;;;;;;;;;4.80;99.90;;;;;;5110107;28;20010;-75
2022/01/17 12:53:34;;;;;;;;;;;4.70;99.90;;;;;;5075460;28;19971;-74
2022/01/17 12:56:07;;;;;;;;;;;4.80;99.90;;;;;;5060088;28;19932;-75
2022/01/17 12:58:40;;;;;;;;;;;4.80;99.90;;;;;;5075599;28;19928;-75
2022/01/17 13:01:13;;;;;;;;;;;4.80;99.90;;;;;;5060293;28;20023;-76
2022/01/17 13:03:49;;;;;;;;;;;4.90;99.90;;;;;;5076944;28;19924;-74
2022/01/17 13:06:17;;;;;;;;;;;4.80;99.90;;;;;;5076553;28;19947;-75
2022/01/17 13:08:44;;;;;;;;;;;4.90;99.90;;;;;;5093009;28;19935;-75
2022/01/17 13:11:17;;;;;;;;;;;4.90;99.90;;;;;;5076880;28;19928;-75
2022/01/17 13:13:53;;;;;;;;;;;4.80;99.90;;;;;;5109626;28;20031;-76
2022/01/17 13:16:21;;;;;;;;;;;4.80;99.90;;;;;;4985683;28;20416;-76
2022/01/17 13:18:48;;;;;;;;;;;4.80;99.90;;;;;;4974786;28;19991;-73
2022/01/17 13:21:15;;;;;;;;;;;4.80;99.90;;;;;;4992928;28;20017;-74
2022/01/17 13:23:47;;;;;;;;;;;4.80;99.90;;;;;;4991143;28;19926;-75
2022/01/17 13:26:23;;;;;;;;;;;4.80;99.90;;;;;;4957150;28;20570;-75
2022/01/17 13:28:56;;;;;;;;;;;4.80;99.90;;;;;;4973064;28;19929;-75
2022/01/17 13:31:23;;;;;;;;;;;4.90;99.90;;;;;;4990985;28;20089;-73
2022/01/17 13:33:50;;;;;;;;;;;4.90;99.90;;;;;;4973171;28;20355;-76
2022/01/17 13:36:27;;;;;;;;;;;5.00;99.90;;;;;;4974381;28;19926;-76
2022/01/17 13:39:05;;;;;;;;;;;5.00;99.90;;;;;;4973546;28;20606;-75
2022/01/17 13:41:38;;;;;;;;;;;5.00;99.90;;;;;;4958233;28;19930;-76
2022/01/17 13:44:05;;;;;;;;;;;4.90;99.90;;;;;;4973286;28;19926;-75
2022/01/17 13:46:32;;;;;;;;;;;4.90;99.90;;;;;;4957444;28;19932;-75
2022/01/17 13:48:59;;;;;;;;;;;4.90;99.90;;;;;;4989068;28;19972;-75
2022/01/17 13:51:31;;;;;;;;;;;4.90;99.90;;;;;;4989429;28;19972;-76
2022/01/17 13:53:58;;;;;;;;;;;4.90;99.90;;;;;;4988913;28;20032;-74
2022/01/17 13:56:31;;;;;;;;;;;4.80;99.90;;;;;;4972862;28;19926;-75
2022/01/17 13:59:03;;;;;;;;;;;4.90;99.90;;;;;;4989482;28;19926;-74
2022/01/17 14:01:31;;;;;;;;;;;4.90;99.90;;;;;;4992249;28;19932;-75
2022/01/17 14:04:00;;;;;;;;;;;4.80;99.90;;;;;;4982260;28;20178;-75
2022/01/17 14:06:33;;;;;;;;;;;4.80;99.90;;;;;;4974236;28;19933;-75
2022/01/17 14:09:06;;;;;;;;;;;4.80;99.90;;;;;;4971441;28;19926;-75
2022/01/17 14:11:41;;;;;;;;;;;4.80;99.90;;;;;;4957507;28;19925;-75
2022/01/17 14:14:14;;;;;;;;;;;4.80;99.90;;;;;;4974026;28;19926;-76
2022/01/17 14:16:42;;;;;;;;;;;4.80;99.90;;;;;;4973264;28;19926;-75
2022/01/17 14:19:10;;;;;;;;;;;4.80;99.90;;;;;;4973574;28;19926;-75
2022/01/17 14:21:38;;;;;;;;;;;4.80;99.90;;;;;;4974560;28;19991;-74
2022/01/17 14:24:04;;;;;;;;;;;4.90;99.90;;;;;;4979843;28;20024;-74
2022/01/17 14:26:31;;;;;;;;;;;4.90;99.90;;;;;;4959754;28;19976;-75
2022/01/17 14:29:03;;;;;;;;;;;4.90;99.90;;;;;;4989886;28;19969;-75
2022/01/17 14:31:35;;;;;;;;;;;4.90;99.90;;;;;;4973669;28;20273;-75
2022/01/17 14:34:18;;;;;;;;;;;4.80;99.90;;;;;;4972326;28;19936;-75
2022/01/17 14:36:57;;;;;;;;;;;4.80;99.90;;;;;;4972522;28;19932;-75
2022/01/17 14:39:28;;;;;;;;;;;4.80;99.90;;;;;;4972783;28;19926;-75
2022/01/17 14:42:07;;;;;;;;;;;4.80;99.90;;;;;;4973730;28;20300;-74
2022/01/17 14:44:40;;;;;;;;;;;4.80;99.90;;;;;;4956845;28;19963;-74
2022/01/17 14:47:12;;;;;;;;;;;4.70;99.90;;;;;;4956793;28;19929;-73
2022/01/17 14:49:41;;;;;;;;;;;4.60;99.90;;;;;;4984587;28;20446;-76
2022/01/17 14:52:12;;;;;;;;;;;4.60;99.90;;;;;;4968701;28;20036;-75
2022/01/17 14:54:49;;;;;;;;;;;4.50;99.90;;;;;;4969796;28;19926;-75
2022/01/17 15:00:12;;;;;;;;;;;4.50;99.90;;;;;;4985377;28;20364;-75
2022/01/17 15:05:37;;;;;;;;;;;4.50;99.90;;;;;;4968466;28;21434;-74
2022/01/17 15:08:05;;;;;;;;;;;4.50;99.90;;;;;;4999600;28;19976;-75
2022/01/17 15:10:37;;;;;;;;;;;4.50;99.90;;;;;;4969815;28;19952;-75
2022/01/17 15:13:06;;;;;;;;;;;4.50;99.90;;;;;;4984121;28;20009;-76
2022/01/17 15:15:34;;;;;;;;;;;4.50;99.90;;;;;;4969836;28;20028;-75
2022/01/17 15:18:07;;;;;;;;;;;4.50;99.90;;;;;;4953407;28;19932;-74
2022/01/17 15:20:41;;;;;;;;;;;4.50;99.90;;;;;;4981944;28;19926;-74
2022/01/17 15:23:13;;;;;;;;;;;4.50;99.90;;;;;;4967708;28;19966;-75
2022/01/17 15:25:45;;;;;;;;;;;4.40;99.90;;;;;;5019516;28;20303;-75
2022/01/17 15:28:17;;;;;;;;;;;4.40;99.90;;;;;;4973949;28;20319;-75